createdAt,value
2017-09-21T00:00:44.248Z,12.52
2017-09-21T00:03:15.326Z,12.48
2017-09-21T00:05:46.412Z,12.43
2017-09-21T00:08:18.504Z,12.38
2017-09-21T00:10:49.581Z,12.36
2017-09-21T00:13:20.683Z,12.35
2017-09-21T00:15:52.097Z,12.35
2017-09-21T00:18:24.083Z,12.36
2017-09-21T00:20:55.474Z,12.34
2017-09-21T00:23:28.155Z,12.30
2017-09-21T00:25:59.233Z,12.30
2017-09-21T00:28:30.981Z,12.30
2017-09-21T00:31:02.561Z,12.28
2017-09-21T00:33:33.682Z,12.26
2017-09-21T00:36:05.590Z,12.27
2017-09-21T00:38:37.979Z,12.24
2017-09-21T00:41:09.100Z,12.24
2017-09-21T00:43:40.224Z,12.23
2017-09-21T00:46:14.312Z,12.22
2017-09-21T00:48:45.452Z,12.22
2017-09-21T00:51:16.568Z,12.22
2017-09-21T00:53:48.000Z,12.21
2017-09-21T00:56:19.650Z,12.21
2017-09-21T00:58:51.056Z,12.20
2017-09-21T01:01:23.668Z,12.19
2017-09-21T01:03:54.863Z,12.17
2017-09-21T01:06:28.017Z,12.16
2017-09-21T01:08:59.119Z,12.13
2017-09-21T01:11:30.227Z,12.11
2017-09-21T01:14:02.491Z,12.10
2017-09-21T01:16:33.561Z,12.09
2017-09-21T01:19:05.419Z,12.09
2017-09-21T01:21:37.634Z,12.09
2017-09-21T01:24:09.586Z,12.07
2017-09-21T01:26:40.700Z,12.08
2017-09-21T01:29:11.826Z,12.07
2017-09-21T01:31:47.286Z,12.06
2017-09-21T01:34:18.479Z,12.06
2017-09-21T01:36:49.636Z,12.05
2017-09-21T01:39:20.970Z,12.04
2017-09-21T01:41:52.327Z,12.04
2017-09-21T01:44:24.918Z,12.03
2017-09-21T01:46:56.052Z,12.04
2017-09-21T01:49:28.424Z,12.03
2017-09-21T01:51:59.512Z,11.98
2017-09-21T01:54:31.923Z,11.96
2017-09-21T01:57:03.255Z,11.96
2017-09-21T01:59:34.582Z,11.95
2017-09-21T02:02:06.348Z,11.92
2017-09-21T02:04:37.742Z,11.89
2017-09-21T02:07:08.849Z,11.88
2017-09-21T02:09:39.963Z,11.86
2017-09-21T02:12:12.182Z,11.79
2017-09-21T02:14:43.282Z,11.77
2017-09-21T02:17:14.443Z,11.75
2017-09-21T02:19:45.808Z,11.77
2017-09-21T02:22:17.107Z,11.81
2017-09-21T02:24:48.156Z,11.80
2017-09-21T02:27:19.271Z,11.79
2017-09-21T02:29:50.351Z,11.74
2017-09-21T02:32:22.378Z,11.72
2017-09-21T02:35:56.127Z,11.70
2017-09-21T02:38:28.440Z,11.70
2017-09-21T02:40:59.515Z,11.71
2017-09-21T02:43:30.557Z,11.69
2017-09-21T02:46:02.771Z,11.69
2017-09-21T02:48:33.880Z,11.69
2017-09-21T02:51:05.027Z,11.62
2017-09-21T02:53:36.383Z,11.55
2017-09-21T02:56:07.643Z,11.52
2017-09-21T02:58:38.743Z,11.53
2017-09-21T03:01:09.896Z,11.53
2017-09-21T03:03:41.245Z,11.53
2017-09-21T03:06:12.594Z,11.52
2017-09-21T03:08:43.678Z,11.52
2017-09-21T03:11:14.793Z,11.52
2017-09-21T03:13:45.850Z,11.54
2017-09-21T03:16:16.948Z,11.57
2017-09-21T03:18:48.304Z,11.54
2017-09-21T03:21:19.382Z,11.51
2017-09-21T03:23:50.465Z,11.49
2017-09-21T03:26:21.595Z,11.45
2017-09-21T03:28:52.709Z,11.44
2017-09-21T03:31:25.286Z,11.43
2017-09-21T03:33:56.649Z,11.42
2017-09-21T03:36:28.134Z,11.34
2017-09-21T03:38:59.214Z,11.29
2017-09-21T03:41:31.565Z,11.25
2017-09-21T03:44:03.400Z,11.26
2017-09-21T03:46:34.485Z,11.25
2017-09-21T03:49:05.877Z,11.24
2017-09-21T03:51:37.002Z,11.26
2017-09-21T03:54:09.054Z,11.28
2017-09-21T03:56:40.435Z,11.29
2017-09-21T03:59:11.509Z,11.30
2017-09-21T04:01:42.873Z,11.29
2017-09-21T04:04:14.538Z,11.25
2017-09-21T04:06:46.792Z,11.18
2017-09-21T04:09:19.624Z,11.12
2017-09-21T04:11:51.299Z,11.13
2017-09-21T04:14:23.328Z,11.09
2017-09-21T04:16:54.587Z,11.10
2017-09-21T04:19:27.082Z,11.08
2017-09-21T04:21:58.372Z,11.07
2017-09-21T04:24:30.864Z,11.08
2017-09-21T04:27:02.459Z,11.07
2017-09-21T04:29:33.692Z,11.07
2017-09-21T04:32:10.322Z,11.10
2017-09-21T04:34:41.700Z,11.12
2017-09-21T04:37:13.117Z,11.06
2017-09-21T04:39:44.233Z,11.03
2017-09-21T04:42:15.465Z,11.01
2017-09-21T04:44:46.903Z,10.98
2017-09-21T04:47:18.107Z,10.96
2017-09-21T04:49:49.229Z,10.95
2017-09-21T04:52:21.364Z,10.91
2017-09-21T04:54:52.489Z,10.87
2017-09-21T04:57:23.959Z,10.88
2017-09-21T04:59:55.488Z,10.92
2017-09-21T05:02:28.110Z,10.93
2017-09-21T05:04:59.197Z,10.93
2017-09-21T05:07:31.369Z,10.92
2017-09-21T05:10:03.611Z,10.92
2017-09-21T05:12:34.709Z,10.91
2017-09-21T05:15:06.072Z,10.90
2017-09-21T05:17:37.189Z,10.92
2017-09-21T05:20:08.496Z,10.94
2017-09-21T05:22:39.906Z,10.95
2017-09-21T05:25:10.991Z,10.96
2017-09-21T05:27:42.537Z,10.98
2017-09-21T05:30:14.246Z,11.04
2017-09-21T05:32:45.522Z,11.08
2017-09-21T05:35:17.122Z,11.09
2017-09-21T05:37:48.182Z,11.09
2017-09-21T05:40:19.384Z,11.12
2017-09-21T05:42:50.497Z,11.18
2017-09-21T05:45:21.609Z,11.23
2017-09-21T05:47:53.073Z,11.29
2017-09-21T05:50:26.818Z,11.34
2017-09-21T05:52:58.191Z,11.40
2017-09-21T05:55:29.850Z,11.49
2017-09-21T05:58:01.268Z,11.59
2017-09-21T06:00:32.730Z,11.73
2017-09-21T06:03:04.110Z,11.79
2017-09-21T06:05:35.223Z,11.88
2017-09-21T06:08:07.922Z,11.97
2017-09-21T06:10:40.154Z,12.08
2017-09-21T06:13:12.858Z,12.18
2017-09-21T06:15:44.945Z,12.35
2017-09-21T06:18:24.101Z,12.50
2017-09-21T06:20:57.019Z,12.59
2017-09-21T06:23:31.573Z,12.61
2017-09-21T06:28:40.220Z,12.81
2017-09-21T06:31:35.701Z,12.83
2017-09-21T06:34:08.799Z,12.99
2017-09-21T06:36:41.274Z,13.14
2017-09-21T06:42:51.937Z,13.42
2017-09-21T06:45:23.753Z,13.47
2017-09-21T06:47:57.708Z,13.61
2017-09-21T06:50:29.165Z,13.77
2017-09-21T06:53:01.782Z,13.94
2017-09-21T06:55:33.442Z,13.97
2017-09-21T06:58:05.904Z,14.03
2017-09-21T07:00:38.224Z,14.14
2017-09-21T07:03:13.845Z,14.27
2017-09-21T07:05:45.529Z,14.39
2017-09-21T07:08:19.802Z,14.52
2017-09-21T07:10:51.571Z,14.61
2017-09-21T07:13:23.554Z,14.70
2017-09-21T07:15:55.536Z,14.75
2017-09-21T07:18:31.559Z,14.79
2017-09-21T07:21:05.938Z,14.79
2017-09-21T07:23:37.882Z,14.79
2017-09-21T07:26:09.405Z,14.74
2017-09-21T07:28:41.542Z,14.80
2017-09-21T07:31:16.108Z,14.86
2017-09-21T07:33:54.516Z,14.94
2017-09-21T07:36:26.614Z,14.93
2017-09-21T07:38:58.263Z,15.03
2017-09-21T07:41:30.190Z,15.16
2017-09-21T07:44:03.054Z,15.26
2017-09-21T07:46:35.367Z,15.24
2017-09-21T07:49:08.979Z,15.27
2017-09-21T07:51:41.044Z,15.05
2017-09-21T07:54:13.965Z,15.02
2017-09-21T07:56:45.583Z,15.14
2017-09-21T07:59:18.337Z,15.11
2017-09-21T08:01:49.925Z,15.19
2017-09-21T08:04:24.634Z,15.37
2017-09-21T08:06:56.906Z,15.42
2017-09-21T08:09:31.403Z,15.64
2017-09-21T08:12:04.172Z,15.80
2017-09-21T08:14:35.964Z,15.98
2017-09-21T08:17:07.751Z,16.35
2017-09-21T08:19:41.062Z,16.74
2017-09-21T08:22:17.272Z,17.08
2017-09-21T08:24:49.010Z,17.32
2017-09-21T08:27:20.702Z,17.58
2017-09-21T08:29:52.813Z,17.84
2017-09-21T08:32:25.327Z,17.98
2017-09-21T08:35:05.397Z,18.13
2017-09-21T08:37:38.777Z,18.35
2017-09-21T08:40:11.275Z,18.49
2017-09-21T08:42:43.321Z,18.61
2017-09-21T08:45:18.471Z,18.75
2017-09-21T08:47:50.410Z,18.82
2017-09-21T08:50:23.773Z,19.00
2017-09-21T08:52:56.078Z,19.20
2017-09-21T08:55:29.727Z,19.41
2017-09-21T08:58:09.532Z,19.41
2017-09-21T09:00:41.907Z,19.61
2017-09-21T09:03:16.166Z,19.74
2017-09-21T09:05:48.865Z,19.74
2017-09-21T09:08:20.633Z,19.45
2017-09-21T09:10:52.209Z,19.52
2017-09-21T09:13:23.947Z,19.78
2017-09-21T09:15:55.382Z,20.26
2017-09-21T09:18:26.960Z,20.36
2017-09-21T09:20:59.235Z,20.47
2017-09-21T09:33:05.931Z,20.75
2017-09-21T09:35:42.806Z,21.94
2017-09-21T09:38:16.868Z,22.27
2017-09-21T09:40:49.061Z,22.07
2017-09-21T09:43:21.023Z,21.79
2017-09-21T09:45:52.814Z,22.04
2017-09-21T09:48:24.616Z,22.42
2017-09-21T09:51:05.812Z,22.06
2017-09-21T09:53:37.468Z,22.22
2017-09-21T09:56:09.252Z,22.37
2017-09-21T10:00:47.273Z,23.08
2017-09-21T10:03:21.025Z,24.03
2017-09-21T10:05:57.576Z,24.38
2017-09-21T10:08:29.245Z,24.99
2017-09-21T10:11:02.890Z,25.24
2017-09-21T10:13:34.737Z,25.41
2017-09-21T10:16:07.037Z,25.51
2017-09-21T10:18:39.240Z,25.92
2017-09-21T10:21:12.346Z,27.05
2017-09-21T10:23:44.337Z,29.03
2017-09-21T10:26:17.684Z,31.46
2017-09-21T10:28:49.543Z,33.73
2017-09-21T10:31:21.817Z,35.67
2017-09-21T10:33:54.310Z,37.73
2017-09-21T10:36:30.445Z,39.00
2017-09-21T10:39:03.456Z,40.96
2017-09-21T10:41:35.846Z,41.99
2017-09-21T10:44:08.295Z,43.01
2017-09-21T10:46:40.333Z,43.49
2017-09-21T10:49:12.311Z,44.79
2017-09-21T10:51:50.936Z,45.81
2017-09-21T10:54:22.822Z,46.96
2017-09-21T10:56:55.416Z,48.06
2017-09-21T10:59:28.086Z,48.99
2017-09-21T11:02:00.351Z,48.95
2017-09-21T11:04:31.731Z,48.57
2017-09-21T11:07:07.487Z,49.88
2017-09-21T11:09:42.928Z,50.41
2017-09-21T11:12:16.219Z,51.91
2017-09-21T11:14:49.123Z,51.95
2017-09-21T11:17:21.001Z,51.53
2017-09-21T11:19:54.437Z,52.57
2017-09-21T11:22:26.157Z,53.86
2017-09-21T11:24:57.716Z,54.26
2017-09-21T11:27:29.503Z,54.84
2017-09-21T11:30:02.692Z,53.93
2017-09-21T11:32:34.712Z,53.78
2017-09-21T11:35:18.818Z,54.59
2017-09-21T11:37:51.039Z,55.69
2017-09-21T11:40:23.852Z,55.39
2017-09-21T11:42:57.468Z,54.09
2017-09-21T11:45:48.212Z,55.02
2017-09-21T11:48:21.588Z,55.41
2017-09-21T11:50:59.214Z,55.11
2017-09-21T11:53:31.576Z,54.96
2017-09-21T11:56:06.689Z,55.22
2017-09-21T11:58:39.345Z,55.58
2017-09-21T12:01:11.476Z,55.87
2017-09-21T12:06:39.738Z,56.40
2017-09-21T12:09:12.487Z,56.71
2017-09-21T12:11:46.854Z,56.22
2017-09-21T12:14:20.271Z,56.03
2017-09-21T12:16:53.030Z,56.37
2017-09-21T12:19:24.737Z,56.87
2017-09-21T12:21:58.440Z,56.52
2017-09-21T12:28:17.035Z,56.74
2017-09-21T12:30:49.217Z,56.66
2017-09-21T12:33:22.285Z,56.67
2017-09-21T12:35:59.342Z,57.34
2017-09-21T12:38:31.097Z,57.03
2017-09-21T12:41:03.262Z,57.24
2017-09-21T12:43:35.114Z,56.56
2017-09-21T12:46:07.127Z,57.04
2017-09-21T12:48:39.371Z,57.95
2017-09-21T12:51:10.811Z,57.53
2017-09-21T12:53:42.487Z,57.38
2017-09-21T12:56:17.739Z,56.57
2017-09-21T12:58:49.810Z,56.15
2017-09-21T13:01:21.404Z,55.42
2017-09-21T13:03:55.832Z,56.07
2017-09-21T13:06:27.738Z,55.61
2017-09-21T13:08:59.836Z,56.29
2017-09-21T13:15:30.370Z,57.16
2017-09-21T13:18:03.216Z,56.74
2017-09-21T13:20:34.774Z,56.77
2017-09-21T13:23:06.280Z,56.49
2017-09-21T13:25:44.827Z,56.96
2017-09-21T13:28:15.961Z,55.78
2017-09-21T13:36:52.070Z,55.80
2017-09-21T13:39:23.255Z,55.84
2017-09-21T13:41:56.911Z,55.98
2017-09-21T13:44:28.399Z,55.79
2017-09-21T13:46:59.900Z,55.77
2017-09-21T13:49:32.125Z,56.08
2017-09-21T13:52:16.931Z,54.41
2017-09-21T13:54:51.033Z,54.22
2017-09-21T13:57:24.010Z,54.27
2017-09-21T13:59:55.507Z,54.27
2017-09-21T14:02:31.973Z,55.01
2017-09-21T14:05:06.716Z,54.44
2017-09-21T14:07:39.654Z,54.20
2017-09-21T14:13:12.318Z,53.51
2017-09-21T14:15:43.726Z,53.61
2017-09-21T14:18:19.828Z,53.24
2017-09-21T14:20:51.291Z,52.88
2017-09-21T14:23:22.789Z,53.61
2017-09-21T14:25:54.038Z,53.06
2017-09-21T14:28:25.249Z,52.49
2017-09-21T14:30:56.677Z,53.35
2017-09-21T14:33:28.053Z,53.43
2017-09-21T14:35:59.820Z,52.67
2017-09-21T14:38:31.150Z,52.23
2017-09-21T14:41:02.874Z,50.94
2017-09-21T14:43:34.386Z,51.09
2017-09-21T14:46:06.716Z,51.31
2017-09-21T14:48:37.941Z,50.87
2017-09-21T14:51:09.576Z,49.89
2017-09-21T14:53:40.757Z,49.02
2017-09-21T14:56:14.206Z,49.35
2017-09-21T14:58:46.064Z,49.91
2017-09-21T15:01:18.818Z,49.92
2017-09-21T15:03:51.392Z,50.16
2017-09-21T15:06:29.730Z,48.59
2017-09-21T15:09:07.029Z,47.65
2017-09-21T15:11:38.833Z,46.37
2017-09-21T15:14:09.930Z,45.94
2017-09-21T15:19:46.087Z,45.83
2017-09-21T15:22:17.631Z,45.01
2017-09-21T15:24:49.019Z,44.47
2017-09-21T15:27:21.395Z,44.05
2017-09-21T15:29:52.753Z,43.20
2017-09-21T15:32:27.061Z,42.86
2017-09-21T15:34:58.244Z,41.92
2017-09-21T15:37:30.022Z,40.83
2017-09-21T15:40:02.174Z,39.20
2017-09-21T15:42:33.724Z,38.99
2017-09-21T15:45:07.629Z,39.18
2017-09-21T15:47:43.208Z,39.04
2017-09-21T15:53:21.152Z,38.32
2017-09-21T15:55:56.441Z,37.58
2017-09-21T15:58:32.719Z,37.26
2017-09-21T16:01:06.334Z,36.94
2017-09-21T16:03:49.267Z,36.02
2017-09-21T16:09:25.922Z,36.78
2017-09-21T16:11:57.409Z,37.04
2017-09-21T16:17:34.449Z,37.50
2017-09-21T16:23:17.365Z,36.26
2017-09-21T16:25:48.515Z,35.39
2017-09-21T16:28:19.797Z,33.33
2017-09-21T16:30:51.253Z,31.76
2017-09-21T16:33:23.240Z,30.39
2017-09-21T16:35:54.984Z,29.32
2017-09-21T16:38:26.802Z,28.44
2017-09-21T16:40:58.528Z,27.53
2017-09-21T16:43:36.708Z,26.65
2017-09-21T16:46:14.711Z,25.99
2017-09-21T16:48:48.535Z,25.44
2017-09-21T16:54:19.875Z,25.02
2017-09-21T16:56:56.063Z,24.66
2017-09-21T17:02:32.202Z,24.08
2017-09-21T17:05:04.095Z,23.94
2017-09-21T17:07:35.402Z,23.68
2017-09-21T17:10:06.748Z,23.54
2017-09-21T17:12:38.572Z,23.41
2017-09-21T17:15:09.683Z,23.20
2017-09-21T17:17:41.069Z,23.04
2017-09-21T17:20:12.380Z,23.08
2017-09-21T17:22:43.713Z,22.91
2017-09-21T17:25:15.481Z,22.84
2017-09-21T17:27:46.833Z,22.85
2017-09-21T17:30:19.640Z,22.72
2017-09-21T17:32:51.031Z,22.71
2017-09-21T17:35:22.117Z,22.67
2017-09-21T17:37:53.480Z,22.46
2017-09-21T17:40:24.835Z,22.33
2017-09-21T17:42:55.898Z,22.19
2017-09-21T17:45:27.262Z,22.31
2017-09-21T17:47:59.108Z,22.15
2017-09-21T17:50:42.192Z,22.09
2017-09-21T17:56:14.379Z,21.60
2017-09-21T17:58:48.610Z,21.72
2017-09-21T18:01:20.603Z,21.81
2017-09-21T18:03:52.313Z,21.84
2017-09-21T18:06:25.319Z,21.59
2017-09-21T18:08:56.911Z,21.59
2017-09-21T18:11:28.594Z,21.43
2017-09-21T18:14:01.616Z,21.27
2017-09-21T18:16:39.326Z,21.13
2017-09-21T18:19:13.196Z,21.12
2017-09-21T18:21:48.201Z,20.93
2017-09-21T18:24:24.898Z,21.14
2017-09-21T18:26:59.778Z,21.19
2017-09-21T18:29:31.396Z,21.11
2017-09-21T18:32:05.847Z,20.97
2017-09-21T18:34:41.588Z,20.95
2017-09-21T18:37:13.643Z,21.01
2017-09-21T18:39:45.415Z,20.93
2017-09-21T18:42:17.986Z,20.91
2017-09-21T18:44:49.445Z,20.84
2017-09-21T18:47:20.910Z,20.82
2017-09-21T18:49:59.450Z,20.62
2017-09-21T18:53:02.958Z,20.41
2017-09-21T18:55:36.354Z,20.26
2017-09-21T18:58:09.290Z,20.22
2017-09-21T19:00:40.486Z,20.19
2017-09-21T19:03:11.586Z,20.09
2017-09-21T19:05:42.996Z,19.98
2017-09-21T19:08:14.288Z,19.82
2017-09-21T19:10:45.587Z,19.78
2017-09-21T19:13:16.659Z,19.95
2017-09-21T19:15:48.245Z,20.22
2017-09-21T19:18:19.320Z,20.18
2017-09-21T19:20:50.675Z,20.08
2017-09-21T19:23:22.051Z,20.09
2017-09-21T19:25:53.247Z,20.03
2017-09-21T19:28:24.388Z,19.92
2017-09-21T19:30:55.774Z,19.96
2017-09-21T19:33:27.041Z,20.02
2017-09-21T19:35:58.530Z,20.03
2017-09-21T19:38:30.984Z,20.07
2017-09-21T19:41:02.220Z,20.15
2017-09-21T19:43:33.954Z,20.11
2017-09-21T19:46:06.414Z,20.19
2017-09-21T19:48:37.506Z,20.15
2017-09-21T19:51:08.992Z,20.14
2017-09-21T19:53:40.062Z,19.93
2017-09-21T19:56:11.350Z,19.86
2017-09-21T19:58:42.731Z,19.66
2017-09-21T20:01:14.021Z,19.56
2017-09-21T20:03:45.487Z,19.35
2017-09-21T20:06:22.583Z,19.13
2017-09-21T20:08:53.632Z,18.98
2017-09-21T20:11:25.672Z,18.83
2017-09-21T20:13:57.105Z,18.75
2017-09-21T20:16:30.162Z,18.72
2017-09-21T20:19:02.032Z,18.67
2017-09-21T20:21:37.880Z,18.60
2017-09-21T20:24:10.701Z,18.45
2017-09-21T20:26:43.356Z,18.29
2017-09-21T20:29:14.433Z,18.14
2017-09-21T20:31:45.820Z,17.96
2017-09-21T20:34:16.899Z,17.93
2017-09-21T20:36:48.315Z,17.86
2017-09-21T20:39:19.592Z,17.72
2017-09-21T20:41:50.678Z,17.62
2017-09-21T20:44:21.843Z,17.57
2017-09-21T20:46:54.231Z,17.63
2017-09-21T20:49:25.317Z,17.58
2017-09-21T20:51:59.372Z,17.54
2017-09-21T20:54:33.159Z,17.45
2017-09-21T20:57:11.149Z,17.45
2017-09-21T20:59:42.286Z,17.43
2017-09-21T21:02:13.819Z,17.40
2017-09-21T21:04:45.180Z,17.29
2017-09-21T21:07:16.227Z,17.25
2017-09-21T21:09:58.889Z,17.19
2017-09-21T21:12:36.942Z,17.11
2017-09-21T21:15:42.014Z,17.07
2017-09-21T21:18:15.060Z,16.97
2017-09-21T21:20:47.417Z,16.91
2017-09-21T21:23:23.402Z,16.85
2017-09-21T21:28:59.810Z,16.78
2017-09-21T21:31:31.601Z,16.71
2017-09-21T21:34:04.381Z,16.65
2017-09-21T21:36:37.306Z,16.61
2017-09-21T21:39:08.868Z,16.59
2017-09-21T21:41:40.808Z,16.57
2017-09-21T21:44:11.848Z,16.56
2017-09-21T21:46:43.249Z,16.49
2017-09-21T21:49:14.332Z,16.44
2017-09-21T21:51:45.435Z,16.43
2017-09-21T21:54:17.805Z,16.37
2017-09-21T21:56:48.954Z,16.34
2017-09-21T21:59:20.407Z,16.28
2017-09-21T22:01:51.826Z,16.27
2017-09-21T22:04:22.932Z,16.20
2017-09-21T22:06:54.047Z,16.18
2017-09-21T22:09:25.432Z,16.14
2017-09-21T22:11:56.576Z,16.12
2017-09-21T22:14:30.350Z,16.09
2017-09-21T22:17:02.183Z,16.02
2017-09-21T22:19:34.862Z,15.97
2017-09-21T22:22:06.548Z,15.96
2017-09-21T22:24:38.478Z,15.96
2017-09-21T22:27:09.618Z,15.98
2017-09-21T22:29:41.385Z,15.93
2017-09-21T22:32:12.725Z,15.89
2017-09-21T22:34:43.811Z,15.88
2017-09-21T22:37:15.223Z,15.88
2017-09-21T22:39:46.323Z,15.88
2017-09-21T22:42:17.662Z,15.82
2017-09-21T22:44:49.211Z,15.73
2017-09-21T22:47:20.324Z,15.70
2017-09-21T22:49:51.398Z,15.69
2017-09-21T22:52:22.948Z,15.71
2017-09-21T22:54:54.049Z,15.71
2017-09-21T22:57:25.132Z,15.68
2017-09-21T22:59:56.881Z,15.66
2017-09-21T23:02:28.006Z,15.64
2017-09-21T23:04:59.134Z,15.59
2017-09-21T23:07:31.586Z,15.58
2017-09-21T23:10:04.746Z,15.50
2017-09-21T23:12:35.824Z,15.44
2017-09-21T23:15:07.219Z,15.33
2017-09-21T23:17:39.001Z,15.32
2017-09-21T23:20:10.114Z,15.36
2017-09-21T23:23:12.094Z,15.31
2017-09-21T23:25:43.418Z,15.23
2017-09-21T23:28:14.491Z,15.19
2017-09-21T23:30:46.080Z,15.20
2017-09-21T23:33:17.164Z,15.15
2017-09-21T23:35:48.264Z,15.14
2017-09-21T23:38:19.721Z,15.14
2017-09-21T23:40:50.856Z,15.13
2017-09-21T23:43:21.993Z,15.10
2017-09-21T23:45:53.345Z,15.07
2017-09-21T23:48:24.431Z,15.07
2017-09-21T23:50:56.178Z,15.03
2017-09-21T23:53:27.275Z,14.99
2017-09-21T23:55:58.423Z,14.95
2017-09-21T23:58:29.481Z,14.94
